EDDH/HAM METAR and TAF weather

Enter ICAO airport designator
Station Type Date Time Source
EDDH METAR 2017/10/19 06:50 UTC NOAA

EDDH 190650Z 12007KT 9999 SCT006 BKN120 12/11 Q1014 TEMPO BKN006


Station Type Date Time Source
EDDH Decoded METAR 2017/10/19 06:50 UTC NOAA

Hamburg-Fuhlsbuettel, Germany (EDDH) 53-38N 010-00E 15M
Oct 19, 2017 - 02:50 AM EDT / 2017.10.19 0650 UTC
Wind: from the ESE (120 degrees) at 8 MPH (7 KT):0
Visibility: greater than 7 mile(s):0
Sky conditions: mostly cloudy
Temperature: 53 F (12 C)
Dew Point: 51 F (11 C)
Relative Humidity: 93%
Pressure (altimeter): 29.94 in. Hg (1014 hPa)
ob: EDDH 190650Z 12007KT 9999 SCT006 BKN120 12/11 Q1014 TEMPO BKN006
cycle: 7

Station Type Date Time Source
EDDH TAF 2017/10/19 06:27 UTC NOAA

TAF EDDH 190500Z 1906/2012 12007KT 9999 BKN025
TEMPO 1906/1910 BKN012 PROB30
TEMPO 1906/1908 3500 BR BKN007 PROB30
TEMPO 1910/1912 BKN012


Example: see airport list